sensor_id;sensor_type;location;lat;lon;timestamp;P1;durP1;ratioP1;P2;durP2;ratioP2
8958;SDS011;4514;49.476;8.484;2022-11-23T00:01:01;6.97;;;2.80;;
8958;SDS011;4514;49.476;8.484;2022-11-23T00:03:47;6.80;;;2.73;;
8958;SDS011;4514;49.476;8.484;2022-11-23T00:06:16;6.47;;;2.50;;
8958;SDS011;4514;49.476;8.484;2022-11-23T00:08:45;7.77;;;2.70;;
8958;SDS011;4514;49.476;8.484;2022-11-23T00:11:11;7.57;;;2.75;;
8958;SDS011;4514;49.476;8.484;2022-11-23T00:13:37;7.27;;;2.83;;
8958;SDS011;4514;49.476;8.484;2022-11-23T00:16:05;5.90;;;2.63;;
8958;SDS011;4514;49.476;8.484;2022-11-23T00:18:36;9.80;;;2.73;;
8958;SDS011;4514;49.476;8.484;2022-11-23T00:21:07;5.73;;;2.30;;
8958;SDS011;4514;49.476;8.484;2022-11-23T00:23:34;4.50;;;2.40;;
8958;SDS011;4514;49.476;8.484;2022-11-23T00:26:05;5.27;;;2.20;;
8958;SDS011;4514;49.476;8.484;2022-11-23T00:28:31;5.13;;;2.20;;
8958;SDS011;4514;49.476;8.484;2022-11-23T00:30:58;8.57;;;2.43;;
8958;SDS011;4514;49.476;8.484;2022-11-23T00:33:26;6.35;;;2.60;;
8958;SDS011;4514;49.476;8.484;2022-11-23T00:36:02;5.13;;;2.33;;
8958;SDS011;4514;49.476;8.484;2022-11-23T00:38:28;8.10;;;2.77;;
8958;SDS011;4514;49.476;8.484;2022-11-23T00:40:57;4.53;;;2.13;;
8958;SDS011;4514;49.476;8.484;2022-11-23T00:43:23;5.30;;;2.20;;
8958;SDS011;4514;49.476;8.484;2022-11-23T00:45:49;6.20;;;2.50;;
8958;SDS011;4514;49.476;8.484;2022-11-23T00:48:15;6.07;;;2.57;;
8958;SDS011;4514;49.476;8.484;2022-11-23T00:50:42;7.33;;;2.57;;
8958;SDS011;4514;49.476;8.484;2022-11-23T00:53:10;7.87;;;2.57;;
8958;SDS011;4514;49.476;8.484;2022-11-23T00:55:38;4.37;;;2.10;;
8958;SDS011;4514;49.476;8.484;2022-11-23T00:58:04;6.87;;;2.67;;
8958;SDS011;4514;49.476;8.484;2022-11-23T01:00:30;6.13;;;2.88;;
8958;SDS011;4514;49.476;8.484;2022-11-23T01:02:57;7.17;;;2.30;;
8958;SDS011;4514;49.476;8.484;2022-11-23T01:05:25;5.43;;;2.23;;
8958;SDS011;4514;49.476;8.484;2022-11-23T01:07:53;8.23;;;2.40;;
8958;SDS011;4514;49.476;8.484;2022-11-23T01:10:19;7.57;;;2.20;;
8958;SDS011;4514;49.476;8.484;2022-11-23T01:12:44;7.03;;;2.50;;
8958;SDS011;4514;49.476;8.484;2022-11-23T01:15:12;5.23;;;2.20;;
8958;SDS011;4514;49.476;8.484;2022-11-23T01:17:37;5.73;;;2.37;;
8958;SDS011;4514;49.476;8.484;2022-11-23T01:20:03;7.97;;;2.33;;
8958;SDS011;4514;49.476;8.484;2022-11-23T01:22:29;4.37;;;1.93;;
8958;SDS011;4514;49.476;8.484;2022-11-23T01:24:54;6.50;;;2.00;;
8958;SDS011;4514;49.476;8.484;2022-11-23T01:27:19;5.50;;;2.50;;
8958;SDS011;4514;49.476;8.484;2022-11-23T01:29:46;5.23;;;2.40;;
8958;SDS011;4514;49.476;8.484;2022-11-23T01:32:11;5.90;;;2.53;;
8958;SDS011;4514;49.476;8.484;2022-11-23T01:34:37;6.33;;;2.27;;
8958;SDS011;4514;49.476;8.484;2022-11-23T01:37:02;8.70;;;2.40;;
8958;SDS011;4514;49.476;8.484;2022-11-23T01:39:27;5.10;;;1.90;;
8958;SDS011;4514;49.476;8.484;2022-11-23T01:41:53;7.43;;;2.70;;
8958;SDS011;4514;49.476;8.484;2022-11-23T01:46:47;8.10;;;2.07;;
8958;SDS011;4514;49.476;8.484;2022-11-23T01:49:15;5.70;;;2.53;;
8958;SDS011;4514;49.476;8.484;2022-11-23T01:51:42;4.30;;;2.03;;
8958;SDS011;4514;49.476;8.484;2022-11-23T01:54:13;4.63;;;1.90;;
8958;SDS011;4514;49.476;8.484;2022-11-23T01:56:47;5.47;;;2.50;;
8958;SDS011;4514;49.476;8.484;2022-11-23T01:59:16;5.63;;;2.10;;
8958;SDS011;4514;49.476;8.484;2022-11-23T02:01:46;5.00;;;2.07;;
8958;SDS011;4514;49.476;8.484;2022-11-23T02:04:19;4.70;;;2.40;;
8958;SDS011;4514;49.476;8.484;2022-11-23T02:06:48;3.87;;;2.00;;
8958;SDS011;4514;49.476;8.484;2022-11-23T02:09:18;3.37;;;1.80;;
8958;SDS011;4514;49.476;8.484;2022-11-23T02:11:44;4.53;;;1.87;;
8958;SDS011;4514;49.476;8.484;2022-11-23T02:14:09;4.80;;;2.13;;
8958;SDS011;4514;49.476;8.484;2022-11-23T02:16:36;5.70;;;2.20;;
8958;SDS011;4514;49.476;8.484;2022-11-23T02:19:01;5.00;;;2.50;;
8958;SDS011;4514;49.476;8.484;2022-11-23T02:21:27;5.80;;;2.23;;
8958;SDS011;4514;49.476;8.484;2022-11-23T02:24:13;5.63;;;2.20;;
8958;SDS011;4514;49.476;8.484;2022-11-23T02:26:44;5.17;;;2.20;;
8958;SDS011;4514;49.476;8.484;2022-11-23T02:29:31;5.57;;;2.07;;
8958;SDS011;4514;49.476;8.484;2022-11-23T02:31:57;5.20;;;2.47;;
8958;SDS011;4514;49.476;8.484;2022-11-23T02:34:22;4.87;;;2.23;;
8958;SDS011;4514;49.476;8.484;2022-11-23T02:36:53;3.57;;;2.13;;
8958;SDS011;4514;49.476;8.484;2022-11-23T02:39:20;5.30;;;2.27;;
8958;SDS011;4514;49.476;8.484;2022-11-23T02:41:55;6.77;;;2.27;;
8958;SDS011;4514;49.476;8.484;2022-11-23T02:47:22;4.77;;;2.07;;
8958;SDS011;4514;49.476;8.484;2022-11-23T02:49:47;6.43;;;2.40;;
8958;SDS011;4514;49.476;8.484;2022-11-23T02:52:14;4.70;;;1.90;;
8958;SDS011;4514;49.476;8.484;2022-11-23T02:54:40;3.47;;;1.93;;
8958;SDS011;4514;49.476;8.484;2022-11-23T02:57:06;5.87;;;2.10;;
8958;SDS011;4514;49.476;8.484;2022-11-23T02:59:34;4.43;;;2.20;;
8958;SDS011;4514;49.476;8.484;2022-11-23T03:02:00;5.93;;;2.27;;
8958;SDS011;4514;49.476;8.484;2022-11-23T03:04:27;2.77;;;1.90;;
8958;SDS011;4514;49.476;8.484;2022-11-23T03:06:52;4.23;;;2.03;;
8958;SDS011;4514;49.476;8.484;2022-11-23T03:09:18;6.10;;;2.00;;
8958;SDS011;4514;49.476;8.484;2022-11-23T03:11:43;4.97;;;2.10;;
8958;SDS011;4514;49.476;8.484;2022-11-23T03:14:11;4.27;;;1.90;;
8958;SDS011;4514;49.476;8.484;2022-11-23T03:16:36;5.67;;;2.23;;
8958;SDS011;4514;49.476;8.484;2022-11-23T03:19:02;4.83;;;2.13;;
8958;SDS011;4514;49.476;8.484;2022-11-23T03:21:27;6.43;;;2.30;;
8958;SDS011;4514;49.476;8.484;2022-11-23T03:23:53;5.03;;;1.70;;
8958;SDS011;4514;49.476;8.484;2022-11-23T03:26:22;5.37;;;2.10;;
8958;SDS011;4514;49.476;8.484;2022-11-23T03:28:47;3.63;;;1.97;;
8958;SDS011;4514;49.476;8.484;2022-11-23T03:31:15;4.07;;;2.00;;
8958;SDS011;4514;49.476;8.484;2022-11-23T03:33:40;6.07;;;2.17;;
8958;SDS011;4514;49.476;8.484;2022-11-23T03:36:10;4.50;;;2.20;;
8958;SDS011;4514;49.476;8.484;2022-11-23T03:38:36;4.32;;;2.25;;
8958;SDS011;4514;49.476;8.484;2022-11-23T03:41:01;5.23;;;2.40;;
8958;SDS011;4514;49.476;8.484;2022-11-23T03:43:26;5.23;;;2.37;;
8958;SDS011;4514;49.476;8.484;2022-11-23T03:45:52;4.57;;;2.23;;
8958;SDS011;4514;49.476;8.484;2022-11-23T03:48:17;5.90;;;2.07;;
8958;SDS011;4514;49.476;8.484;2022-11-23T03:50:45;4.00;;;1.97;;
8958;SDS011;4514;49.476;8.484;2022-11-23T03:53:11;6.53;;;2.43;;
8958;SDS011;4514;49.476;8.484;2022-11-23T03:55:36;4.37;;;2.03;;
8958;SDS011;4514;49.476;8.484;2022-11-23T03:58:02;3.00;;;2.00;;
8958;SDS011;4514;49.476;8.484;2022-11-23T04:00:28;4.93;;;2.17;;
8958;SDS011;4514;49.476;8.484;2022-11-23T04:02:54;6.23;;;2.17;;
8958;SDS011;4514;49.476;8.484;2022-11-23T04:05:22;4.70;;;2.10;;
8958;SDS011;4514;49.476;8.484;2022-11-23T04:07:48;7.13;;;2.20;;
8958;SDS011;4514;49.476;8.484;2022-11-23T04:10:14;5.10;;;2.17;;
8958;SDS011;4514;49.476;8.484;2022-11-23T04:12:43;6.30;;;2.23;;
8958;SDS011;4514;49.476;8.484;2022-11-23T04:15:09;3.83;;;2.23;;
8958;SDS011;4514;49.476;8.484;2022-11-23T04:17:35;5.60;;;2.03;;
8958;SDS011;4514;49.476;8.484;2022-11-23T04:20:03;4.63;;;2.00;;
8958;SDS011;4514;49.476;8.484;2022-11-23T04:22:29;6.90;;;2.13;;
8958;SDS011;4514;49.476;8.484;2022-11-23T04:24:55;7.70;;;2.37;;
8958;SDS011;4514;49.476;8.484;2022-11-23T04:27:20;4.50;;;2.07;;
8958;SDS011;4514;49.476;8.484;2022-11-23T04:29:46;6.53;;;2.60;;
8958;SDS011;4514;49.476;8.484;2022-11-23T04:32:13;3.80;;;2.43;;
8958;SDS011;4514;49.476;8.484;2022-11-23T04:34:41;7.10;;;2.40;;
8958;SDS011;4514;49.476;8.484;2022-11-23T04:37:06;6.83;;;2.07;;
8958;SDS011;4514;49.476;8.484;2022-11-23T04:39:34;5.60;;;2.30;;
8958;SDS011;4514;49.476;8.484;2022-11-23T04:42:00;5.83;;;2.20;;
8958;SDS011;4514;49.476;8.484;2022-11-23T04:44:27;6.80;;;2.43;;
8958;SDS011;4514;49.476;8.484;2022-11-23T04:46:55;5.27;;;2.40;;
8958;SDS011;4514;49.476;8.484;2022-11-23T04:49:20;4.93;;;2.23;;
8958;SDS011;4514;49.476;8.484;2022-11-23T04:51:48;6.87;;;2.23;;
8958;SDS011;4514;49.476;8.484;2022-11-23T04:54:16;5.57;;;2.20;;
8958;SDS011;4514;49.476;8.484;2022-11-23T04:56:43;5.57;;;2.20;;
8958;SDS011;4514;49.476;8.484;2022-11-23T04:59:10;4.80;;;2.70;;
8958;SDS011;4514;49.476;8.484;2022-11-23T05:01:35;3.40;;;2.17;;
8958;SDS011;4514;49.476;8.484;2022-11-23T05:04:00;4.87;;;2.00;;
8958;SDS011;4514;49.476;8.484;2022-11-23T05:06:26;4.73;;;2.23;;
8958;SDS011;4514;49.476;8.484;2022-11-23T05:08:53;3.90;;;2.20;;
8958;SDS011;4514;49.476;8.484;2022-11-23T05:11:19;5.47;;;1.90;;
8958;SDS011;4514;49.476;8.484;2022-11-23T05:13:44;6.23;;;1.90;;
8958;SDS011;4514;49.476;8.484;2022-11-23T05:16:12;8.50;;;2.30;;
8958;SDS011;4514;49.476;8.484;2022-11-23T05:18:39;8.63;;;2.43;;
8958;SDS011;4514;49.476;8.484;2022-11-23T05:21:09;4.47;;;2.20;;
8958;SDS011;4514;49.476;8.484;2022-11-23T05:23:34;6.90;;;2.00;;
8958;SDS011;4514;49.476;8.484;2022-11-23T05:25:59;5.43;;;2.40;;
8958;SDS011;4514;49.476;8.484;2022-11-23T05:28:26;4.23;;;2.03;;
8958;SDS011;4514;49.476;8.484;2022-11-23T05:30:53;5.77;;;2.00;;
8958;SDS011;4514;49.476;8.484;2022-11-23T05:33:26;6.47;;;2.40;;
8958;SDS011;4514;49.476;8.484;2022-11-23T05:35:56;4.97;;;2.30;;
8958;SDS011;4514;49.476;8.484;2022-11-23T05:38:23;6.37;;;2.50;;
8958;SDS011;4514;49.476;8.484;2022-11-23T05:40:48;5.40;;;2.10;;
8958;SDS011;4514;49.476;8.484;2022-11-23T05:43:18;3.40;;;2.00;;
8958;SDS011;4514;49.476;8.484;2022-11-23T05:45:46;7.40;;;2.23;;
8958;SDS011;4514;49.476;8.484;2022-11-23T05:48:11;4.27;;;1.90;;
8958;SDS011;4514;49.476;8.484;2022-11-23T05:50:37;5.10;;;1.80;;
8958;SDS011;4514;49.476;8.484;2022-11-23T05:53:04;5.77;;;2.00;;
8958;SDS011;4514;49.476;8.484;2022-11-23T05:55:32;4.53;;;2.17;;
8958;SDS011;4514;49.476;8.484;2022-11-23T05:58:00;7.07;;;2.10;;
8958;SDS011;4514;49.476;8.484;2022-11-23T06:00:26;5.27;;;2.27;;
8958;SDS011;4514;49.476;8.484;2022-11-23T06:02:55;5.22;;;2.55;;
8958;SDS011;4514;49.476;8.484;2022-11-23T06:05:23;5.70;;;2.47;;
8958;SDS011;4514;49.476;8.484;2022-11-23T06:07:51;5.97;;;2.13;;
8958;SDS011;4514;49.476;8.484;2022-11-23T06:10:18;8.27;;;2.10;;
8958;SDS011;4514;49.476;8.484;2022-11-23T06:12:44;4.40;;;2.30;;
8958;SDS011;4514;49.476;8.484;2022-11-23T06:15:10;5.27;;;1.90;;
8958;SDS011;4514;49.476;8.484;2022-11-23T06:17:36;5.83;;;2.13;;
8958;SDS011;4514;49.476;8.484;2022-11-23T06:20:02;4.60;;;1.80;;
8958;SDS011;4514;49.476;8.484;2022-11-23T06:22:28;4.33;;;1.97;;
8958;SDS011;4514;49.476;8.484;2022-11-23T06:24:54;4.97;;;1.87;;
8958;SDS011;4514;49.476;8.484;2022-11-23T06:27:21;4.50;;;1.73;;
8958;SDS011;4514;49.476;8.484;2022-11-23T06:29:49;4.30;;;1.90;;
8958;SDS011;4514;49.476;8.484;2022-11-23T06:32:14;3.37;;;2.00;;
8958;SDS011;4514;49.476;8.484;2022-11-23T06:34:40;6.30;;;2.27;;
8958;SDS011;4514;49.476;8.484;2022-11-23T06:37:07;6.18;;;2.33;;
8958;SDS011;4514;49.476;8.484;2022-11-23T06:39:33;5.17;;;2.10;;
8958;SDS011;4514;49.476;8.484;2022-11-23T06:41:58;4.97;;;2.50;;
8958;SDS011;4514;49.476;8.484;2022-11-23T06:44:26;4.03;;;2.37;;
8958;SDS011;4514;49.476;8.484;2022-11-23T06:46:54;3.57;;;2.10;;
8958;SDS011;4514;49.476;8.484;2022-11-23T06:49:19;7.07;;;2.60;;
8958;SDS011;4514;49.476;8.484;2022-11-23T06:51:45;5.30;;;2.73;;
8958;SDS011;4514;49.476;8.484;2022-11-23T06:54:11;6.53;;;2.50;;
8958;SDS011;4514;49.476;8.484;2022-11-23T06:56:39;6.13;;;2.27;;
8958;SDS011;4514;49.476;8.484;2022-11-23T06:59:06;5.15;;;2.55;;
8958;SDS011;4514;49.476;8.484;2022-11-23T07:01:32;6.77;;;2.53;;
8958;SDS011;4514;49.476;8.484;2022-11-23T07:03:59;6.50;;;2.30;;
8958;SDS011;4514;49.476;8.484;2022-11-23T07:06:25;4.87;;;2.10;;
8958;SDS011;4514;49.476;8.484;2022-11-23T07:08:50;5.63;;;2.23;;
8958;SDS011;4514;49.476;8.484;2022-11-23T07:11:18;4.33;;;2.30;;
8958;SDS011;4514;49.476;8.484;2022-11-23T07:13:44;5.80;;;2.43;;
8958;SDS011;4514;49.476;8.484;2022-11-23T07:16:14;6.40;;;2.10;;
8958;SDS011;4514;49.476;8.484;2022-11-23T07:18:43;4.63;;;2.07;;
8958;SDS011;4514;49.476;8.484;2022-11-23T07:21:09;5.88;;;2.15;;
8958;SDS011;4514;49.476;8.484;2022-11-23T07:23:34;6.07;;;2.60;;
8958;SDS011;4514;49.476;8.484;2022-11-23T07:26:04;7.60;;;2.40;;
8958;SDS011;4514;49.476;8.484;2022-11-23T07:28:33;7.77;;;2.10;;
8958;SDS011;4514;49.476;8.484;2022-11-23T07:30:58;4.77;;;2.30;;
8958;SDS011;4514;49.476;8.484;2022-11-23T07:33:26;4.50;;;2.30;;
8958;SDS011;4514;49.476;8.484;2022-11-23T07:35:54;4.97;;;2.33;;
8958;SDS011;4514;49.476;8.484;2022-11-23T07:38:27;5.57;;;2.40;;
8958;SDS011;4514;49.476;8.484;2022-11-23T07:40:55;4.17;;;2.13;;
8958;SDS011;4514;49.476;8.484;2022-11-23T07:43:22;5.57;;;2.40;;
8958;SDS011;4514;49.476;8.484;2022-11-23T07:45:48;4.47;;;2.10;;
8958;SDS011;4514;49.476;8.484;2022-11-23T07:48:14;6.17;;;2.60;;
8958;SDS011;4514;49.476;8.484;2022-11-23T07:50:40;4.70;;;2.25;;
8958;SDS011;4514;49.476;8.484;2022-11-23T07:53:06;6.33;;;2.37;;
8958;SDS011;4514;49.476;8.484;2022-11-23T07:55:32;3.77;;;2.10;;
8958;SDS011;4514;49.476;8.484;2022-11-23T07:58:01;5.83;;;2.13;;
8958;SDS011;4514;49.476;8.484;2022-11-23T08:00:32;5.30;;;2.30;;
8958;SDS011;4514;49.476;8.484;2022-11-23T08:03:00;7.53;;;2.60;;
8958;SDS011;4514;49.476;8.484;2022-11-23T08:05:25;3.80;;;2.43;;
8958;SDS011;4514;49.476;8.484;2022-11-23T08:07:56;3.83;;;2.10;;
8958;SDS011;4514;49.476;8.484;2022-11-23T08:10:25;6.53;;;2.50;;
8958;SDS011;4514;49.476;8.484;2022-11-23T08:12:51;5.03;;;2.17;;
8958;SDS011;4514;49.476;8.484;2022-11-23T08:15:17;5.03;;;2.17;;
8958;SDS011;4514;49.476;8.484;2022-11-23T08:17:42;5.77;;;2.30;;
8958;SDS011;4514;49.476;8.484;2022-11-23T08:20:07;5.40;;;2.20;;
8958;SDS011;4514;49.476;8.484;2022-11-23T08:22:36;6.17;;;2.40;;
8958;SDS011;4514;49.476;8.484;2022-11-23T08:25:03;4.13;;;2.10;;
8958;SDS011;4514;49.476;8.484;2022-11-23T08:27:29;4.93;;;2.10;;
8958;SDS011;4514;49.476;8.484;2022-11-23T08:29:54;5.47;;;2.20;;
8958;SDS011;4514;49.476;8.484;2022-11-23T08:32:22;6.83;;;2.40;;
8958;SDS011;4514;49.476;8.484;2022-11-23T08:34:47;3.90;;;2.07;;
8958;SDS011;4514;49.476;8.484;2022-11-23T08:37:13;5.27;;;2.20;;
8958;SDS011;4514;49.476;8.484;2022-11-23T08:39:39;5.17;;;2.10;;
8958;SDS011;4514;49.476;8.484;2022-11-23T08:42:07;6.85;;;2.60;;
8958;SDS011;4514;49.476;8.484;2022-11-23T08:44:32;5.03;;;1.87;;
8958;SDS011;4514;49.476;8.484;2022-11-23T08:47:02;7.17;;;2.07;;
8958;SDS011;4514;49.476;8.484;2022-11-23T08:49:28;4.93;;;2.10;;
8958;SDS011;4514;49.476;8.484;2022-11-23T08:51:53;6.25;;;1.83;;
8958;SDS011;4514;49.476;8.484;2022-11-23T08:54:21;4.38;;;2.25;;
8958;SDS011;4514;49.476;8.484;2022-11-23T08:56:48;5.93;;;1.90;;
8958;SDS011;4514;49.476;8.484;2022-11-23T08:59:14;6.88;;;1.88;;
8958;SDS011;4514;49.476;8.484;2022-11-23T09:01:43;5.22;;;2.50;;
8958;SDS011;4514;49.476;8.484;2022-11-23T09:04:11;5.30;;;2.30;;
8958;SDS011;4514;49.476;8.484;2022-11-23T09:06:36;2.88;;;2.00;;
8958;SDS011;4514;49.476;8.484;2022-11-23T09:09:02;3.60;;;2.00;;
8958;SDS011;4514;49.476;8.484;2022-11-23T09:11:27;5.50;;;2.00;;
8958;SDS011;4514;49.476;8.484;2022-11-23T09:13:53;6.43;;;2.30;;
8958;SDS011;4514;49.476;8.484;2022-11-23T09:16:20;4.88;;;2.35;;
8958;SDS011;4514;49.476;8.484;2022-11-23T09:18:46;4.90;;;2.33;;
8958;SDS011;4514;49.476;8.484;2022-11-23T09:21:16;5.97;;;2.22;;
8958;SDS011;4514;49.476;8.484;2022-11-23T09:23:41;5.07;;;2.30;;
8958;SDS011;4514;49.476;8.484;2022-11-23T09:26:06;5.75;;;2.72;;
8958;SDS011;4514;49.476;8.484;2022-11-23T09:28:32;3.60;;;1.95;;
8958;SDS011;4514;49.476;8.484;2022-11-23T09:30:57;7.35;;;2.65;;
8958;SDS011;4514;49.476;8.484;2022-11-23T09:33:29;4.20;;;2.00;;
8958;SDS011;4514;49.476;8.484;2022-11-23T09:35:58;4.63;;;2.13;;
8958;SDS011;4514;49.476;8.484;2022-11-23T09:38:24;4.78;;;2.60;;
8958;SDS011;4514;49.476;8.484;2022-11-23T09:40:52;4.57;;;2.65;;
8958;SDS011;4514;49.476;8.484;2022-11-23T09:45:54;3.15;;;2.00;;
8958;SDS011;4514;49.476;8.484;2022-11-23T09:51:06;6.63;;;2.70;;
8958;SDS011;4514;49.476;8.484;2022-11-23T09:53:45;4.60;;;2.30;;
8958;SDS011;4514;49.476;8.484;2022-11-23T09:58:48;4.07;;;2.22;;
8958;SDS011;4514;49.476;8.484;2022-11-23T10:01:15;5.28;;;2.45;;
8958;SDS011;4514;49.476;8.484;2022-11-23T10:03:43;4.60;;;2.30;;
8958;SDS011;4514;49.476;8.484;2022-11-23T10:25:17;5.85;;;2.58;;
8958;SDS011;4514;49.476;8.484;2022-11-23T10:27:44;3.80;;;2.15;;
8958;SDS011;4514;49.476;8.484;2022-11-23T10:30:14;3.25;;;2.20;;
8958;SDS011;4514;49.476;8.484;2022-11-23T10:32:43;6.20;;;2.40;;
8958;SDS011;4514;49.476;8.484;2022-11-23T10:35:17;4.15;;;2.30;;
8958;SDS011;4514;49.476;8.484;2022-11-23T10:37:49;3.70;;;2.00;;
8958;SDS011;4514;49.476;8.484;2022-11-23T10:40:17;4.53;;;2.40;;
8958;SDS011;4514;49.476;8.484;2022-11-23T10:42:49;4.80;;;2.20;;
8958;SDS011;4514;49.476;8.484;2022-11-23T10:45:21;4.38;;;2.30;;
8958;SDS011;4514;49.476;8.484;2022-11-23T10:47:51;6.57;;;2.47;;
8958;SDS011;4514;49.476;8.484;2022-11-23T10:50:30;5.25;;;2.42;;
8958;SDS011;4514;49.476;8.484;2022-11-23T10:55:30;7.50;;;2.30;;
8958;SDS011;4514;49.476;8.484;2022-11-23T10:57:57;4.65;;;1.90;;
8958;SDS011;4514;49.476;8.484;2022-11-23T11:00:23;5.03;;;2.00;;
8958;SDS011;4514;49.476;8.484;2022-11-23T11:02:51;3.88;;;2.05;;
8958;SDS011;4514;49.476;8.484;2022-11-23T11:05:37;4.10;;;2.30;;
8958;SDS011;4514;49.476;8.484;2022-11-23T11:08:16;3.75;;;2.08;;
8958;SDS011;4514;49.476;8.484;2022-11-23T11:10:46;4.30;;;2.13;;
8958;SDS011;4514;49.476;8.484;2022-11-23T11:18:34;4.22;;;1.98;;
8958;SDS011;4514;49.476;8.484;2022-11-23T11:21:05;6.82;;;2.50;;
8958;SDS011;4514;49.476;8.484;2022-11-23T11:23:36;5.05;;;2.55;;
8958;SDS011;4514;49.476;8.484;2022-11-23T11:26:06;5.10;;;2.40;;
8958;SDS011;4514;49.476;8.484;2022-11-23T11:34:22;4.05;;;1.73;;
8958;SDS011;4514;49.476;8.484;2022-11-23T11:36:57;5.82;;;2.20;;
8958;SDS011;4514;49.476;8.484;2022-11-23T11:39:48;7.35;;;2.28;;
8958;SDS011;4514;49.476;8.484;2022-11-23T11:42:23;3.53;;;2.20;;
8958;SDS011;4514;49.476;8.484;2022-11-23T11:44:54;5.55;;;2.70;;
8958;SDS011;4514;49.476;8.484;2022-11-23T11:49:55;3.80;;;2.20;;
8958;SDS011;4514;49.476;8.484;2022-11-23T11:52:26;6.18;;;2.35;;
8958;SDS011;4514;49.476;8.484;2022-11-23T11:55:00;7.60;;;2.50;;
8958;SDS011;4514;49.476;8.484;2022-11-23T11:57:55;7.15;;;3.90;;
8958;SDS011;4514;49.476;8.484;2022-11-23T12:00:24;4.60;;;2.58;;
8958;SDS011;4514;49.476;8.484;2022-11-23T12:10:58;9.63;;;2.92;;
8958;SDS011;4514;49.476;8.484;2022-11-23T12:13:27;4.55;;;2.15;;
8958;SDS011;4514;49.476;8.484;2022-11-23T12:31:58;7.68;;;2.30;;
8958;SDS011;4514;49.476;8.484;2022-11-23T12:42:40;5.10;;;1.83;;
8958;SDS011;4514;49.476;8.484;2022-11-23T12:56:03;4.05;;;1.95;;
8958;SDS011;4514;49.476;8.484;2022-11-23T12:58:37;5.43;;;2.33;;
8958;SDS011;4514;49.476;8.484;2022-11-23T13:01:20;11.15;;;3.22;;
8958;SDS011;4514;49.476;8.484;2022-11-23T13:09:21;5.05;;;1.90;;
8958;SDS011;4514;49.476;8.484;2022-11-23T13:14:39;5.57;;;2.10;;
8958;SDS011;4514;49.476;8.484;2022-11-23T13:22:49;7.22;;;2.25;;
8958;SDS011;4514;49.476;8.484;2022-11-23T13:25:23;7.15;;;2.13;;
8958;SDS011;4514;49.476;8.484;2022-11-23T13:30:25;4.80;;;1.70;;
8958;SDS011;4514;49.476;8.484;2022-11-23T13:40:39;3.20;;;1.63;;
8958;SDS011;4514;49.476;8.484;2022-11-23T13:45:45;5.78;;;2.10;;
8958;SDS011;4514;49.476;8.484;2022-11-23T13:48:41;5.85;;;1.90;;
8958;SDS011;4514;49.476;8.484;2022-11-23T13:51:10;5.30;;;2.33;;
8958;SDS011;4514;49.476;8.484;2022-11-23T13:53:38;5.97;;;2.05;;
8958;SDS011;4514;49.476;8.484;2022-11-23T14:02:00;5.90;;;1.95;;
8958;SDS011;4514;49.476;8.484;2022-11-23T14:04:32;4.78;;;2.15;;
8958;SDS011;4514;49.476;8.484;2022-11-23T14:15:21;3.58;;;1.50;;
8958;SDS011;4514;49.476;8.484;2022-11-23T14:17:59;4.35;;;1.38;;
8958;SDS011;4514;49.476;8.484;2022-11-23T14:40:00;4.13;;;1.42;;
8958;SDS011;4514;49.476;8.484;2022-11-23T14:42:29;2.28;;;1.27;;
8958;SDS011;4514;49.476;8.484;2022-11-23T14:44:56;3.28;;;1.40;;
8958;SDS011;4514;49.476;8.484;2022-11-23T14:47:28;5.00;;;1.67;;
8958;SDS011;4514;49.476;8.484;2022-11-23T14:49:55;3.20;;;1.80;;
8958;SDS011;4514;49.476;8.484;2022-11-23T14:52:27;2.53;;;1.70;;
8958;SDS011;4514;49.476;8.484;2022-11-23T14:54:55;3.08;;;1.40;;
8958;SDS011;4514;49.476;8.484;2022-11-23T14:57:24;4.60;;;1.67;;
8958;SDS011;4514;49.476;8.484;2022-11-23T14:59:55;2.65;;;1.63;;
8958;SDS011;4514;49.476;8.484;2022-11-23T15:02:33;4.25;;;1.92;;
8958;SDS011;4514;49.476;8.484;2022-11-23T15:05:11;3.75;;;1.80;;
8958;SDS011;4514;49.476;8.484;2022-11-23T15:12:58;4.55;;;1.60;;
8958;SDS011;4514;49.476;8.484;2022-11-23T15:15:26;3.70;;;1.60;;
8958;SDS011;4514;49.476;8.484;2022-11-23T15:18:02;1.50;;;1.35;;
8958;SDS011;4514;49.476;8.484;2022-11-23T15:20:34;3.40;;;1.50;;
8958;SDS011;4514;49.476;8.484;2022-11-23T15:23:06;5.03;;;1.52;;
8958;SDS011;4514;49.476;8.484;2022-11-23T15:25:49;3.55;;;1.70;;
8958;SDS011;4514;49.476;8.484;2022-11-23T15:28:21;4.13;;;1.50;;
8958;SDS011;4514;49.476;8.484;2022-11-23T15:30:49;5.20;;;2.17;;
8958;SDS011;4514;49.476;8.484;2022-11-23T15:33:17;4.28;;;1.80;;
8958;SDS011;4514;49.476;8.484;2022-11-23T15:35:44;5.68;;;2.03;;
8958;SDS011;4514;49.476;8.484;2022-11-23T15:38:12;4.25;;;2.00;;
8958;SDS011;4514;49.476;8.484;2022-11-23T15:40:43;3.88;;;1.80;;
8958;SDS011;4514;49.476;8.484;2022-11-23T15:43:15;3.53;;;2.35;;
8958;SDS011;4514;49.476;8.484;2022-11-23T15:50:50;4.10;;;2.33;;
8958;SDS011;4514;49.476;8.484;2022-11-23T15:53:15;2.33;;;2.00;;
8958;SDS011;4514;49.476;8.484;2022-11-23T15:55:41;3.80;;;2.20;;
8958;SDS011;4514;49.476;8.484;2022-11-23T15:58:12;3.47;;;2.03;;
8958;SDS011;4514;49.476;8.484;2022-11-23T16:00:43;5.53;;;2.60;;
8958;SDS011;4514;49.476;8.484;2022-11-23T16:03:28;4.20;;;2.60;;
8958;SDS011;4514;49.476;8.484;2022-11-23T16:06:57;4.07;;;2.50;;
8958;SDS011;4514;49.476;8.484;2022-11-23T16:11:57;3.90;;;2.55;;
8958;SDS011;4514;49.476;8.484;2022-11-23T16:14:26;4.43;;;2.83;;
8958;SDS011;4514;49.476;8.484;2022-11-23T16:19:50;6.07;;;2.90;;
8958;SDS011;4514;49.476;8.484;2022-11-23T16:22:32;4.93;;;2.90;;
8958;SDS011;4514;49.476;8.484;2022-11-23T16:25:50;4.53;;;3.00;;
8958;SDS011;4514;49.476;8.484;2022-11-23T16:30:43;5.47;;;2.95;;
8958;SDS011;4514;49.476;8.484;2022-11-23T16:33:17;3.80;;;2.78;;
8958;SDS011;4514;49.476;8.484;2022-11-23T16:35:43;7.67;;;3.33;;
8958;SDS011;4514;49.476;8.484;2022-11-23T16:38:11;8.02;;;3.97;;
8958;SDS011;4514;49.476;8.484;2022-11-23T16:40:37;3.83;;;2.90;;
8958;SDS011;4514;49.476;8.484;2022-11-23T16:43:03;7.50;;;2.78;;
8958;SDS011;4514;49.476;8.484;2022-11-23T16:45:31;3.28;;;2.30;;
8958;SDS011;4514;49.476;8.484;2022-11-23T16:47:59;6.93;;;2.95;;
8958;SDS011;4514;49.476;8.484;2022-11-23T16:50:26;5.85;;;2.78;;
8958;SDS011;4514;49.476;8.484;2022-11-23T16:52:53;5.10;;;2.60;;
8958;SDS011;4514;49.476;8.484;2022-11-23T16:55:23;6.93;;;2.47;;
8958;SDS011;4514;49.476;8.484;2022-11-23T16:57:49;3.50;;;2.42;;
8958;SDS011;4514;49.476;8.484;2022-11-23T17:00:16;5.97;;;2.90;;
8958;SDS011;4514;49.476;8.484;2022-11-23T17:02:49;7.30;;;3.10;;
8958;SDS011;4514;49.476;8.484;2022-11-23T17:05:18;4.95;;;2.83;;
8958;SDS011;4514;49.476;8.484;2022-11-23T17:07:45;5.07;;;2.97;;
8958;SDS011;4514;49.476;8.484;2022-11-23T17:10:13;5.70;;;3.30;;
8958;SDS011;4514;49.476;8.484;2022-11-23T17:12:39;4.45;;;2.90;;
8958;SDS011;4514;49.476;8.484;2022-11-23T17:15:10;4.68;;;2.92;;
8958;SDS011;4514;49.476;8.484;2022-11-23T17:17:36;4.68;;;2.92;;
8958;SDS011;4514;49.476;8.484;2022-11-23T17:20:04;5.10;;;2.80;;
8958;SDS011;4514;49.476;8.484;2022-11-23T17:22:33;6.40;;;3.22;;
8958;SDS011;4514;49.476;8.484;2022-11-23T17:24:58;3.55;;;3.05;;
8958;SDS011;4514;49.476;8.484;2022-11-23T17:27:26;7.77;;;3.30;;
8958;SDS011;4514;49.476;8.484;2022-11-23T17:29:59;5.88;;;3.00;;
8958;SDS011;4514;49.476;8.484;2022-11-23T17:32:25;4.10;;;3.15;;
8958;SDS011;4514;49.476;8.484;2022-11-23T17:34:51;4.18;;;3.08;;
8958;SDS011;4514;49.476;8.484;2022-11-23T17:37:20;4.95;;;3.10;;
8958;SDS011;4514;49.476;8.484;2022-11-23T17:39:47;5.28;;;3.30;;
8958;SDS011;4514;49.476;8.484;2022-11-23T17:42:13;4.38;;;2.90;;
8958;SDS011;4514;49.476;8.484;2022-11-23T17:44:39;4.90;;;3.35;;
8958;SDS011;4514;49.476;8.484;2022-11-23T17:47:05;14.60;;;5.05;;
8958;SDS011;4514;49.476;8.484;2022-11-23T17:49:36;7.82;;;3.85;;
8958;SDS011;4514;49.476;8.484;2022-11-23T17:52:03;10.52;;;4.28;;
8958;SDS011;4514;49.476;8.484;2022-11-23T17:54:29;5.60;;;3.72;;
8958;SDS011;4514;49.476;8.484;2022-11-23T17:56:54;10.43;;;4.03;;
8958;SDS011;4514;49.476;8.484;2022-11-23T17:59:21;6.03;;;3.37;;
8958;SDS011;4514;49.476;8.484;2022-11-23T18:01:47;4.83;;;3.10;;
8958;SDS011;4514;49.476;8.484;2022-11-23T18:04:15;5.43;;;3.07;;
8958;SDS011;4514;49.476;8.484;2022-11-23T18:06:43;4.77;;;2.90;;
8958;SDS011;4514;49.476;8.484;2022-11-23T18:09:08;12.33;;;4.50;;
8958;SDS011;4514;49.476;8.484;2022-11-23T18:11:35;9.03;;;3.27;;
8958;SDS011;4514;49.476;8.484;2022-11-23T18:14:01;5.63;;;2.80;;